sensor_id;sensor_type;location;lat;lon;timestamp;P1;durP1;ratioP1;P2;durP2;ratioP2
64469;SDS011;50854;48.538;14.352;2023-05-18T00:00:57;13.83;;;6.93;;
64469;SDS011;50854;48.538;14.352;2023-05-18T00:01:59;11.35;;;6.35;;
64469;SDS011;50854;48.538;14.352;2023-05-18T00:03:00;12.23;;;6.10;;
64469;SDS011;50854;48.538;14.352;2023-05-18T00:04:01;16.40;;;7.40;;
64469;SDS011;50854;48.538;14.352;2023-05-18T00:05:03;13.65;;;6.55;;
64469;SDS011;50854;48.538;14.352;2023-05-18T00:06:04;10.35;;;6.90;;
64469;SDS011;50854;48.538;14.352;2023-05-18T00:07:06;13.02;;;6.25;;
64469;SDS011;50854;48.538;14.352;2023-05-18T00:08:06;13.57;;;6.70;;
64469;SDS011;50854;48.538;14.352;2023-05-18T00:09:06;11.03;;;6.67;;
64469;SDS011;50854;48.538;14.352;2023-05-18T00:10:07;10.40;;;6.33;;
64469;SDS011;50854;48.538;14.352;2023-05-18T00:11:07;9.93;;;6.35;;
64469;SDS011;50854;48.538;14.352;2023-05-18T00:12:08;11.70;;;6.17;;
64469;SDS011;50854;48.538;14.352;2023-05-18T00:13:08;12.48;;;6.93;;
64469;SDS011;50854;48.538;14.352;2023-05-18T00:14:09;14.50;;;6.37;;
64469;SDS011;50854;48.538;14.352;2023-05-18T00:15:09;10.33;;;5.57;;
64469;SDS011;50854;48.538;14.352;2023-05-18T00:16:10;11.27;;;6.20;;
64469;SDS011;50854;48.538;14.352;2023-05-18T00:17:12;15.25;;;6.70;;
64469;SDS011;50854;48.538;14.352;2023-05-18T00:18:13;15.88;;;6.38;;
64469;SDS011;50854;48.538;14.352;2023-05-18T00:19:14;13.57;;;6.33;;
64469;SDS011;50854;48.538;14.352;2023-05-18T00:20:14;11.27;;;6.68;;
64469;SDS011;50854;48.538;14.352;2023-05-18T00:21:16;11.88;;;6.63;;
64469;SDS011;50854;48.538;14.352;2023-05-18T00:22:17;9.57;;;6.37;;
64469;SDS011;50854;48.538;14.352;2023-05-18T00:23:17;10.95;;;6.35;;
64469;SDS011;50854;48.538;14.352;2023-05-18T00:24:18;11.40;;;5.97;;
64469;SDS011;50854;48.538;14.352;2023-05-18T00:25:18;12.77;;;6.43;;
64469;SDS011;50854;48.538;14.352;2023-05-18T00:26:18;12.93;;;6.73;;
64469;SDS011;50854;48.538;14.352;2023-05-18T00:27:18;9.70;;;6.33;;
64469;SDS011;50854;48.538;14.352;2023-05-18T00:28:19;9.87;;;6.03;;
64469;SDS011;50854;48.538;14.352;2023-05-18T00:29:19;11.87;;;6.37;;
64469;SDS011;50854;48.538;14.352;2023-05-18T00:30:19;15.20;;;6.00;;
64469;SDS011;50854;48.538;14.352;2023-05-18T00:31:20;10.48;;;6.28;;
64469;SDS011;50854;48.538;14.352;2023-05-18T00:32:20;13.60;;;6.40;;
64469;SDS011;50854;48.538;14.352;2023-05-18T00:33:21;12.80;;;6.53;;
64469;SDS011;50854;48.538;14.352;2023-05-18T00:34:21;11.88;;;6.25;;
64469;SDS011;50854;48.538;14.352;2023-05-18T00:35:22;8.47;;;5.87;;
64469;SDS011;50854;48.538;14.352;2023-05-18T00:36:22;10.23;;;6.33;;
64469;SDS011;50854;48.538;14.352;2023-05-18T00:37:22;16.37;;;6.47;;
64469;SDS011;50854;48.538;14.352;2023-05-18T00:38:22;11.83;;;5.50;;
64469;SDS011;50854;48.538;14.352;2023-05-18T00:39:23;13.00;;;6.07;;
64469;SDS011;50854;48.538;14.352;2023-05-18T00:40:23;10.80;;;5.80;;
64469;SDS011;50854;48.538;14.352;2023-05-18T00:42:25;11.25;;;5.82;;
64469;SDS011;50854;48.538;14.352;2023-05-18T00:43:25;14.00;;;6.40;;
64469;SDS011;50854;48.538;14.352;2023-05-18T00:44:25;9.63;;;5.83;;
64469;SDS011;50854;48.538;14.352;2023-05-18T00:45:26;14.73;;;6.77;;
64469;SDS011;50854;48.538;14.352;2023-05-18T00:46:26;8.63;;;5.73;;
64469;SDS011;50854;48.538;14.352;2023-05-18T00:47:27;12.00;;;5.63;;
64469;SDS011;50854;48.538;14.352;2023-05-18T00:48:27;11.73;;;5.77;;
64469;SDS011;50854;48.538;14.352;2023-05-18T00:49:27;13.20;;;5.93;;
64469;SDS011;50854;48.538;14.352;2023-05-18T00:50:28;11.20;;;6.70;;
64469;SDS011;50854;48.538;14.352;2023-05-18T00:51:28;12.90;;;6.67;;
64469;SDS011;50854;48.538;14.352;2023-05-18T00:52:31;12.23;;;6.03;;
64469;SDS011;50854;48.538;14.352;2023-05-18T00:53:31;11.55;;;5.70;;
64469;SDS011;50854;48.538;14.352;2023-05-18T00:54:32;9.63;;;5.90;;
64469;SDS011;50854;48.538;14.352;2023-05-18T00:55:33;13.27;;;6.57;;
64469;SDS011;50854;48.538;14.352;2023-05-18T00:56:33;9.37;;;6.17;;
64469;SDS011;50854;48.538;14.352;2023-05-18T00:57:34;11.02;;;5.80;;
64469;SDS011;50854;48.538;14.352;2023-05-18T00:59:35;13.82;;;6.15;;
64469;SDS011;50854;48.538;14.352;2023-05-18T01:00:36;14.33;;;6.77;;
64469;SDS011;50854;48.538;14.352;2023-05-18T01:01:36;10.32;;;6.97;;
64469;SDS011;50854;48.538;14.352;2023-05-18T01:02:42;10.15;;;6.65;;
64469;SDS011;50854;48.538;14.352;2023-05-18T01:03:44;12.30;;;6.65;;
64469;SDS011;50854;48.538;14.352;2023-05-18T01:04:44;10.33;;;6.43;;
64469;SDS011;50854;48.538;14.352;2023-05-18T01:05:45;13.73;;;7.00;;
64469;SDS011;50854;48.538;14.352;2023-05-18T01:06:49;14.00;;;7.20;;
64469;SDS011;50854;48.538;14.352;2023-05-18T01:07:49;11.98;;;6.32;;
64469;SDS011;50854;48.538;14.352;2023-05-18T01:08:51;12.10;;;6.50;;
64469;SDS011;50854;48.538;14.352;2023-05-18T01:09:52;10.38;;;6.57;;
64469;SDS011;50854;48.538;14.352;2023-05-18T01:10:55;11.07;;;7.03;;
64469;SDS011;50854;48.538;14.352;2023-05-18T01:12:57;10.90;;;7.30;;
64469;SDS011;50854;48.538;14.352;2023-05-18T01:14:14;12.00;;;6.72;;
64469;SDS011;50854;48.538;14.352;2023-05-18T01:15:18;12.63;;;7.32;;
64469;SDS011;50854;48.538;14.352;2023-05-18T01:16:19;10.82;;;6.68;;
64469;SDS011;50854;48.538;14.352;2023-05-18T01:18:36;11.30;;;6.93;;
64469;SDS011;50854;48.538;14.352;2023-05-18T01:20:59;14.52;;;7.10;;
64469;SDS011;50854;48.538;14.352;2023-05-18T01:23:33;13.35;;;7.47;;
64469;SDS011;50854;48.538;14.352;2023-05-18T01:24:44;16.17;;;7.65;;
64469;SDS011;50854;48.538;14.352;2023-05-18T01:26:47;15.67;;;6.90;;
64469;SDS011;50854;48.538;14.352;2023-05-18T01:27:49;17.02;;;7.75;;
64469;SDS011;50854;48.538;14.352;2023-05-18T01:28:50;15.88;;;8.15;;
64469;SDS011;50854;48.538;14.352;2023-05-18T01:29:51;11.88;;;7.35;;
64469;SDS011;50854;48.538;14.352;2023-05-18T01:30:53;15.57;;;7.72;;
64469;SDS011;50854;48.538;14.352;2023-05-18T01:31:53;14.35;;;8.07;;
64469;SDS011;50854;48.538;14.352;2023-05-18T01:32:53;11.30;;;7.77;;
64469;SDS011;50854;48.538;14.352;2023-05-18T01:33:54;14.07;;;7.40;;
64469;SDS011;50854;48.538;14.352;2023-05-18T01:34:54;11.70;;;7.23;;
64469;SDS011;50854;48.538;14.352;2023-05-18T01:35:54;11.70;;;7.80;;
64469;SDS011;50854;48.538;14.352;2023-05-18T01:36:55;10.80;;;6.70;;
64469;SDS011;50854;48.538;14.352;2023-05-18T01:37:55;11.70;;;7.10;;
64469;SDS011;50854;48.538;14.352;2023-05-18T01:38:55;11.93;;;7.67;;
64469;SDS011;50854;48.538;14.352;2023-05-18T01:40:00;14.02;;;7.70;;
64469;SDS011;50854;48.538;14.352;2023-05-18T01:42:20;11.27;;;7.05;;
64469;SDS011;50854;48.538;14.352;2023-05-18T01:43:25;12.10;;;6.75;;
64469;SDS011;50854;48.538;14.352;2023-05-18T01:51:44;14.82;;;7.10;;
64469;SDS011;50854;48.538;14.352;2023-05-18T01:54:49;11.13;;;7.23;;
64469;SDS011;50854;48.538;14.352;2023-05-18T01:55:51;13.07;;;6.53;;
64469;SDS011;50854;48.538;14.352;2023-05-18T01:56:52;15.80;;;7.07;;
64469;SDS011;50854;48.538;14.352;2023-05-18T01:57:53;12.60;;;6.78;;
64469;SDS011;50854;48.538;14.352;2023-05-18T01:58:54;14.43;;;6.75;;
64469;SDS011;50854;48.538;14.352;2023-05-18T01:59:57;10.07;;;6.68;;
64469;SDS011;50854;48.538;14.352;2023-05-18T02:00:59;12.45;;;6.53;;
64469;SDS011;50854;48.538;14.352;2023-05-18T02:01:59;8.95;;;6.63;;
64469;SDS011;50854;48.538;14.352;2023-05-18T02:03:00;9.27;;;6.85;;
64469;SDS011;50854;48.538;14.352;2023-05-18T02:04:00;14.50;;;6.97;;
64469;SDS011;50854;48.538;14.352;2023-05-18T02:05:01;13.40;;;6.70;;
64469;SDS011;50854;48.538;14.352;2023-05-18T02:06:01;11.20;;;6.93;;
64469;SDS011;50854;48.538;14.352;2023-05-18T02:07:01;12.00;;;7.27;;
64469;SDS011;50854;48.538;14.352;2023-05-18T02:08:02;15.40;;;7.40;;
64469;SDS011;50854;48.538;14.352;2023-05-18T02:09:03;10.60;;;7.20;;
64469;SDS011;50854;48.538;14.352;2023-05-18T02:10:03;12.63;;;6.95;;
64469;SDS011;50854;48.538;14.352;2023-05-18T02:11:04;9.93;;;6.68;;
64469;SDS011;50854;48.538;14.352;2023-05-18T02:12:04;13.07;;;7.00;;
64469;SDS011;50854;48.538;14.352;2023-05-18T02:13:05;11.70;;;6.32;;
64469;SDS011;50854;48.538;14.352;2023-05-18T02:14:05;10.90;;;6.83;;
64469;SDS011;50854;48.538;14.352;2023-05-18T02:15:05;16.47;;;7.37;;
64469;SDS011;50854;48.538;14.352;2023-05-18T02:16:06;14.25;;;6.63;;
64469;SDS011;50854;48.538;14.352;2023-05-18T02:17:06;11.93;;;6.90;;
64469;SDS011;50854;48.538;14.352;2023-05-18T02:18:07;11.27;;;6.63;;
64469;SDS011;50854;48.538;14.352;2023-05-18T02:19:07;18.70;;;7.07;;
64469;SDS011;50854;48.538;14.352;2023-05-18T02:20:07;15.23;;;7.30;;
64469;SDS011;50854;48.538;14.352;2023-05-18T02:21:08;11.82;;;7.28;;
64469;SDS011;50854;48.538;14.352;2023-05-18T02:22:08;12.18;;;6.57;;
64469;SDS011;50854;48.538;14.352;2023-05-18T02:23:09;12.07;;;6.93;;
64469;SDS011;50854;48.538;14.352;2023-05-18T02:24:10;12.68;;;6.90;;
64469;SDS011;50854;48.538;14.352;2023-05-18T02:25:13;11.75;;;7.28;;
64469;SDS011;50854;48.538;14.352;2023-05-18T02:26:13;15.30;;;7.20;;
64469;SDS011;50854;48.538;14.352;2023-05-18T02:27:13;15.17;;;7.17;;
64469;SDS011;50854;48.538;14.352;2023-05-18T02:28:14;11.98;;;7.78;;
64469;SDS011;50854;48.538;14.352;2023-05-18T02:29:14;13.93;;;7.57;;
64469;SDS011;50854;48.538;14.352;2023-05-18T02:30:15;11.87;;;6.73;;
64469;SDS011;50854;48.538;14.352;2023-05-18T02:31:15;12.57;;;6.70;;
64469;SDS011;50854;48.538;14.352;2023-05-18T02:32:15;10.47;;;6.90;;
64469;SDS011;50854;48.538;14.352;2023-05-18T02:33:16;13.93;;;7.50;;
64469;SDS011;50854;48.538;14.352;2023-05-18T02:34:18;13.63;;;7.72;;
64469;SDS011;50854;48.538;14.352;2023-05-18T02:35:20;12.45;;;7.63;;
64469;SDS011;50854;48.538;14.352;2023-05-18T02:36:21;14.50;;;7.60;;
64469;SDS011;50854;48.538;14.352;2023-05-18T02:37:21;11.80;;;7.17;;
64469;SDS011;50854;48.538;14.352;2023-05-18T02:38:22;11.27;;;6.50;;
64469;SDS011;50854;48.538;14.352;2023-05-18T02:39:22;9.70;;;6.47;;
64469;SDS011;50854;48.538;14.352;2023-05-18T02:40:22;16.00;;;6.90;;
64469;SDS011;50854;48.538;14.352;2023-05-18T02:41:22;13.90;;;6.93;;
64469;SDS011;50854;48.538;14.352;2023-05-18T02:42:22;10.27;;;6.63;;
64469;SDS011;50854;48.538;14.352;2023-05-18T02:43:23;11.37;;;7.03;;
64469;SDS011;50854;48.538;14.352;2023-05-18T02:44:23;9.87;;;6.57;;
64469;SDS011;50854;48.538;14.352;2023-05-18T02:45:23;17.43;;;7.30;;
64469;SDS011;50854;48.538;14.352;2023-05-18T02:46:24;10.07;;;6.73;;
64469;SDS011;50854;48.538;14.352;2023-05-18T02:47:24;11.63;;;6.18;;
64469;SDS011;50854;48.538;14.352;2023-05-18T02:48:25;13.97;;;7.23;;
64469;SDS011;50854;48.538;14.352;2023-05-18T02:49:25;15.80;;;6.93;;
64469;SDS011;50854;48.538;14.352;2023-05-18T02:50:25;13.33;;;7.03;;
64469;SDS011;50854;48.538;14.352;2023-05-18T02:51:26;12.07;;;7.13;;
64469;SDS011;50854;48.538;14.352;2023-05-18T02:52:26;14.60;;;7.17;;
64469;SDS011;50854;48.538;14.352;2023-05-18T02:53:27;15.80;;;6.70;;
64469;SDS011;50854;48.538;14.352;2023-05-18T02:54:28;12.87;;;6.63;;
64469;SDS011;50854;48.538;14.352;2023-05-18T02:55:28;12.50;;;6.63;;
64469;SDS011;50854;48.538;14.352;2023-05-18T02:56:29;15.90;;;7.07;;
64469;SDS011;50854;48.538;14.352;2023-05-18T02:57:29;9.70;;;7.50;;
64469;SDS011;50854;48.538;14.352;2023-05-18T02:58:30;13.18;;;7.32;;
64469;SDS011;50854;48.538;14.352;2023-05-18T02:59:31;13.63;;;6.90;;
64469;SDS011;50854;48.538;14.352;2023-05-18T03:00:31;11.52;;;7.38;;
64469;SDS011;50854;48.538;14.352;2023-05-18T03:01:32;14.73;;;7.30;;
64469;SDS011;50854;48.538;14.352;2023-05-18T03:02:33;12.82;;;7.18;;
64469;SDS011;50854;48.538;14.352;2023-05-18T03:03:37;10.55;;;7.53;;
64469;SDS011;50854;48.538;14.352;2023-05-18T03:04:38;14.90;;;7.18;;
64469;SDS011;50854;48.538;14.352;2023-05-18T03:05:38;13.80;;;7.17;;
64469;SDS011;50854;48.538;14.352;2023-05-18T03:06:38;10.87;;;7.20;;
64469;SDS011;50854;48.538;14.352;2023-05-18T03:07:39;11.60;;;7.40;;
64469;SDS011;50854;48.538;14.352;2023-05-18T03:08:39;10.70;;;7.70;;
64469;SDS011;50854;48.538;14.352;2023-05-18T03:09:40;14.05;;;7.53;;
64469;SDS011;50854;48.538;14.352;2023-05-18T03:10:40;13.88;;;6.97;;
64469;SDS011;50854;48.538;14.352;2023-05-18T03:11:40;12.67;;;7.40;;
64469;SDS011;50854;48.538;14.352;2023-05-18T03:12:41;15.77;;;7.67;;
64469;SDS011;50854;48.538;14.352;2023-05-18T03:13:41;13.20;;;7.30;;
64469;SDS011;50854;48.538;14.352;2023-05-18T03:14:42;13.50;;;7.28;;
64469;SDS011;50854;48.538;14.352;2023-05-18T03:15:42;13.43;;;7.57;;
64469;SDS011;50854;48.538;14.352;2023-05-18T03:16:46;14.82;;;6.68;;
64469;SDS011;50854;48.538;14.352;2023-05-18T03:17:46;14.27;;;8.00;;
64469;SDS011;50854;48.538;14.352;2023-05-18T03:18:46;14.40;;;7.97;;
64469;SDS011;50854;48.538;14.352;2023-05-18T03:19:46;12.93;;;7.77;;
64469;SDS011;50854;48.538;14.352;2023-05-18T03:20:47;14.20;;;8.53;;
64469;SDS011;50854;48.538;14.352;2023-05-18T03:21:50;19.48;;;7.72;;
64469;SDS011;50854;48.538;14.352;2023-05-18T03:22:51;16.27;;;8.67;;
64469;SDS011;50854;48.538;14.352;2023-05-18T03:23:51;14.07;;;7.67;;
64469;SDS011;50854;48.538;14.352;2023-05-18T03:24:51;14.70;;;7.27;;
64469;SDS011;50854;48.538;14.352;2023-05-18T03:25:54;13.73;;;7.90;;
64469;SDS011;50854;48.538;14.352;2023-05-18T03:26:54;15.83;;;7.60;;
64469;SDS011;50854;48.538;14.352;2023-05-18T03:28:57;14.00;;;6.95;;
64469;SDS011;50854;48.538;14.352;2023-05-18T03:29:57;12.93;;;7.90;;
64469;SDS011;50854;48.538;14.352;2023-05-18T03:30:57;13.47;;;7.33;;
64469;SDS011;50854;48.538;14.352;2023-05-18T03:31:58;16.90;;;7.87;;
64469;SDS011;50854;48.538;14.352;2023-05-18T03:32:58;14.50;;;7.87;;
64469;SDS011;50854;48.538;14.352;2023-05-18T03:33:59;13.25;;;8.40;;
64469;SDS011;50854;48.538;14.352;2023-05-18T03:34:59;11.67;;;7.40;;
64469;SDS011;50854;48.538;14.352;2023-05-18T03:36:01;13.52;;;7.25;;
64469;SDS011;50854;48.538;14.352;2023-05-18T03:37:01;11.93;;;6.88;;
64469;SDS011;50854;48.538;14.352;2023-05-18T03:38:02;12.37;;;7.93;;
64469;SDS011;50854;48.538;14.352;2023-05-18T03:39:02;12.50;;;7.53;;
64469;SDS011;50854;48.538;14.352;2023-05-18T03:40:13;11.88;;;7.10;;
64469;SDS011;50854;48.538;14.352;2023-05-18T03:41:13;13.98;;;7.05;;
64469;SDS011;50854;48.538;14.352;2023-05-18T03:42:14;13.27;;;6.40;;
64469;SDS011;50854;48.538;14.352;2023-05-18T03:43:14;15.23;;;7.37;;
64469;SDS011;50854;48.538;14.352;2023-05-18T03:44:15;12.23;;;6.63;;
64469;SDS011;50854;48.538;14.352;2023-05-18T03:45:16;16.30;;;6.80;;
64469;SDS011;50854;48.538;14.352;2023-05-18T03:47:17;11.75;;;6.32;;
64469;SDS011;50854;48.538;14.352;2023-05-18T03:48:17;11.70;;;6.45;;
64469;SDS011;50854;48.538;14.352;2023-05-18T03:49:18;13.23;;;6.60;;
64469;SDS011;50854;48.538;14.352;2023-05-18T03:50:18;14.53;;;6.87;;
64469;SDS011;50854;48.538;14.352;2023-05-18T03:51:18;11.73;;;6.60;;
64469;SDS011;50854;48.538;14.352;2023-05-18T03:52:19;15.82;;;7.00;;
64469;SDS011;50854;48.538;14.352;2023-05-18T03:53:21;11.68;;;5.75;;
64469;SDS011;50854;48.538;14.352;2023-05-18T03:54:22;13.45;;;6.45;;
64469;SDS011;50854;48.538;14.352;2023-05-18T03:55:23;16.20;;;7.10;;
64469;SDS011;50854;48.538;14.352;2023-05-18T03:56:23;10.67;;;6.90;;
64469;SDS011;50854;48.538;14.352;2023-05-18T03:57:23;8.70;;;6.30;;
64469;SDS011;50854;48.538;14.352;2023-05-18T03:58:23;13.80;;;6.77;;
64469;SDS011;50854;48.538;14.352;2023-05-18T03:59:24;12.57;;;6.60;;
64469;SDS011;50854;48.538;14.352;2023-05-18T04:00:25;10.45;;;6.93;;
64469;SDS011;50854;48.538;14.352;2023-05-18T04:01:25;12.63;;;6.77;;
64469;SDS011;50854;48.538;14.352;2023-05-18T04:02:25;15.50;;;6.33;;
64469;SDS011;50854;48.538;14.352;2023-05-18T04:03:25;12.17;;;6.40;;
64469;SDS011;50854;48.538;14.352;2023-05-18T04:04:26;17.63;;;8.03;;
64469;SDS011;50854;48.538;14.352;2023-05-18T04:05:26;14.53;;;7.27;;
64469;SDS011;50854;48.538;14.352;2023-05-18T04:06:27;13.13;;;7.07;;
64469;SDS011;50854;48.538;14.352;2023-05-18T04:07:27;14.83;;;7.43;;
64469;SDS011;50854;48.538;14.352;2023-05-18T04:08:27;13.33;;;6.80;;
64469;SDS011;50854;48.538;14.352;2023-05-18T04:10:29;17.73;;;7.03;;
64469;SDS011;50854;48.538;14.352;2023-05-18T04:11:30;14.38;;;6.57;;
64469;SDS011;50854;48.538;14.352;2023-05-18T04:12:30;15.67;;;6.87;;
64469;SDS011;50854;48.538;14.352;2023-05-18T04:13:30;12.63;;;6.10;;
64469;SDS011;50854;48.538;14.352;2023-05-18T04:14:30;12.73;;;6.50;;
64469;SDS011;50854;48.538;14.352;2023-05-18T04:15:34;15.25;;;6.78;;
64469;SDS011;50854;48.538;14.352;2023-05-18T04:16:35;13.70;;;6.45;;
64469;SDS011;50854;48.538;14.352;2023-05-18T04:17:35;16.87;;;6.67;;
64469;SDS011;50854;48.538;14.352;2023-05-18T04:18:36;12.43;;;6.30;;
64469;SDS011;50854;48.538;14.352;2023-05-18T04:19:36;12.93;;;6.87;;
64469;SDS011;50854;48.538;14.352;2023-05-18T04:20:36;10.57;;;6.47;;
64469;SDS011;50854;48.538;14.352;2023-05-18T04:21:37;16.83;;;7.90;;
64469;SDS011;50854;48.538;14.352;2023-05-18T04:22:41;11.33;;;6.63;;
64469;SDS011;50854;48.538;14.352;2023-05-18T04:23:42;15.07;;;6.75;;
64469;SDS011;50854;48.538;14.352;2023-05-18T04:24:42;14.47;;;6.87;;
64469;SDS011;50854;48.538;14.352;2023-05-18T04:25:46;22.13;;;7.22;;
64469;SDS011;50854;48.538;14.352;2023-05-18T04:26:48;15.95;;;7.00;;
64469;SDS011;50854;48.538;14.352;2023-05-18T04:27:48;13.23;;;6.57;;
64469;SDS011;50854;48.538;14.352;2023-05-18T04:28:49;12.20;;;6.50;;
64469;SDS011;50854;48.538;14.352;2023-05-18T04:29:50;22.02;;;6.43;;
64469;SDS011;50854;48.538;14.352;2023-05-18T04:30:50;16.00;;;7.20;;
64469;SDS011;50854;48.538;14.352;2023-05-18T04:31:51;11.90;;;6.57;;
64469;SDS011;50854;48.538;14.352;2023-05-18T04:32:52;15.82;;;6.90;;
64469;SDS011;50854;48.538;14.352;2023-05-18T04:33:53;10.60;;;6.53;;
64469;SDS011;50854;48.538;14.352;2023-05-18T04:34:53;16.05;;;6.95;;
64469;SDS011;50854;48.538;14.352;2023-05-18T04:35:57;21.67;;;7.10;;
64469;SDS011;50854;48.538;14.352;2023-05-18T04:36:58;12.73;;;7.30;;
64469;SDS011;50854;48.538;14.352;2023-05-18T04:37:59;12.32;;;6.53;;
64469;SDS011;50854;48.538;14.352;2023-05-18T04:39:00;14.83;;;6.73;;
64469;SDS011;50854;48.538;14.352;2023-05-18T04:40:02;16.70;;;7.03;;
64469;SDS011;50854;48.538;14.352;2023-05-18T04:41:06;14.63;;;6.95;;
64469;SDS011;50854;48.538;14.352;2023-05-18T04:43:07;14.95;;;6.15;;
64469;SDS011;50854;48.538;14.352;2023-05-18T04:44:08;12.77;;;6.93;;
64469;SDS011;50854;48.538;14.352;2023-05-18T04:45:08;18.80;;;6.78;;
64469;SDS011;50854;48.538;14.352;2023-05-18T04:46:11;16.75;;;6.18;;
64469;SDS011;50854;48.538;14.352;2023-05-18T04:47:12;16.85;;;6.55;;
64469;SDS011;50854;48.538;14.352;2023-05-18T04:48:13;17.90;;;6.93;;
64469;SDS011;50854;48.538;14.352;2023-05-18T04:49:16;17.17;;;6.47;;
64469;SDS011;50854;48.538;14.352;2023-05-18T04:50:21;16.08;;;6.18;;
64469;SDS011;50854;48.538;14.352;2023-05-18T04:51:24;20.23;;;7.05;;
64469;SDS011;50854;48.538;14.352;2023-05-18T04:52:24;15.60;;;6.87;;
64469;SDS011;50854;48.538;14.352;2023-05-18T04:53:25;13.90;;;5.95;;
64469;SDS011;50854;48.538;14.352;2023-05-18T04:54:27;15.63;;;6.75;;
64469;SDS011;50854;48.538;14.352;2023-05-18T04:55:29;14.00;;;5.15;;
64469;SDS011;50854;48.538;14.352;2023-05-18T04:56:30;23.20;;;6.50;;
64469;SDS011;50854;48.538;14.352;2023-05-18T04:57:30;13.97;;;6.00;;
64469;SDS011;50854;48.538;14.352;2023-05-18T04:58:32;14.70;;;6.47;;
64469;SDS011;50854;48.538;14.352;2023-05-18T04:59:33;15.82;;;6.55;;
64469;SDS011;50854;48.538;14.352;2023-05-18T05:00:35;10.70;;;5.97;;
64469;SDS011;50854;48.538;14.352;2023-05-18T05:01:36;15.10;;;5.18;;
64469;SDS011;50854;48.538;14.352;2023-05-18T05:02:36;13.37;;;5.37;;
64469;SDS011;50854;48.538;14.352;2023-05-18T05:03:37;13.80;;;5.80;;
64469;SDS011;50854;48.538;14.352;2023-05-18T05:04:37;11.00;;;5.63;;
64469;SDS011;50854;48.538;14.352;2023-05-18T05:05:37;16.53;;;6.30;;
64469;SDS011;50854;48.538;14.352;2023-05-18T05:06:38;10.40;;;5.67;;
64469;SDS011;50854;48.538;14.352;2023-05-18T05:07:38;16.50;;;5.97;;
64469;SDS011;50854;48.538;14.352;2023-05-18T05:08:38;12.13;;;4.90;;
64469;SDS011;50854;48.538;14.352;2023-05-18T05:09:38;10.80;;;5.87;;
64469;SDS011;50854;48.538;14.352;2023-05-18T05:10:39;12.80;;;5.70;;
64469;SDS011;50854;48.538;14.352;2023-05-18T05:11:39;10.93;;;6.37;;
64469;SDS011;50854;48.538;14.352;2023-05-18T05:12:43;12.18;;;5.32;;
64469;SDS011;50854;48.538;14.352;2023-05-18T05:13:43;13.50;;;5.77;;
64469;SDS011;50854;48.538;14.352;2023-05-18T05:14:43;13.70;;;5.20;;
64469;SDS011;50854;48.538;14.352;2023-05-18T05:15:44;14.97;;;5.87;;
64469;SDS011;50854;48.538;14.352;2023-05-18T05:16:44;17.37;;;5.67;;
64469;SDS011;50854;48.538;14.352;2023-05-18T05:17:48;13.20;;;6.03;;
64469;SDS011;50854;48.538;14.352;2023-05-18T05:18:48;10.48;;;5.90;;
64469;SDS011;50854;48.538;14.352;2023-05-18T05:19:48;10.93;;;5.57;;
64469;SDS011;50854;48.538;14.352;2023-05-18T05:20:51;14.90;;;6.28;;
64469;SDS011;50854;48.538;14.352;2023-05-18T05:21:52;14.88;;;5.50;;
64469;SDS011;50854;48.538;14.352;2023-05-18T05:22:52;14.30;;;5.30;;
64469;SDS011;50854;48.538;14.352;2023-05-18T05:23:52;18.90;;;6.03;;
64469;SDS011;50854;48.538;14.352;2023-05-18T05:24:53;12.33;;;5.50;;
64469;SDS011;50854;48.538;14.352;2023-05-18T05:25:53;18.23;;;5.80;;
64469;SDS011;50854;48.538;14.352;2023-05-18T05:26:53;12.57;;;5.73;;
64469;SDS011;50854;48.538;14.352;2023-05-18T05:27:53;20.00;;;5.80;;
64469;SDS011;50854;48.538;14.352;2023-05-18T05:28:53;14.27;;;6.00;;
64469;SDS011;50854;48.538;14.352;2023-05-18T05:29:54;14.23;;;6.63;;
64469;SDS011;50854;48.538;14.352;2023-05-18T05:30:55;17.02;;;5.57;;
64469;SDS011;50854;48.538;14.352;2023-05-18T05:31:55;13.67;;;5.83;;
64469;SDS011;50854;48.538;14.352;2023-05-18T05:32:55;15.20;;;5.73;;
64469;SDS011;50854;48.538;14.352;2023-05-18T05:33:56;9.97;;;5.33;;
64469;SDS011;50854;48.538;14.352;2023-05-18T05:34:56;13.03;;;5.47;;
64469;SDS011;50854;48.538;14.352;2023-05-18T05:35:56;13.30;;;5.43;;
64469;SDS011;50854;48.538;14.352;2023-05-18T05:36:56;13.90;;;5.90;;
64469;SDS011;50854;48.538;14.352;2023-05-18T05:37:57;11.10;;;5.40;;
64469;SDS011;50854;48.538;14.352;2023-05-18T05:38:57;13.03;;;6.03;;
64469;SDS011;50854;48.538;14.352;2023-05-18T05:39:57;10.37;;;5.70;;
64469;SDS011;50854;48.538;14.352;2023-05-18T05:40:58;19.27;;;6.38;;
64469;SDS011;50854;48.538;14.352;2023-05-18T05:41:58;16.90;;;6.03;;
64469;SDS011;50854;48.538;14.352;2023-05-18T05:42:58;8.97;;;5.80;;
64469;SDS011;50854;48.538;14.352;2023-05-18T05:43:59;17.83;;;5.97;;
64469;SDS011;50854;48.538;14.352;2023-05-18T05:44:59;9.97;;;5.47;;
64469;SDS011;50854;48.538;14.352;2023-05-18T05:45:59;12.57;;;5.93;;
64469;SDS011;50854;48.538;14.352;2023-05-18T05:47:00;15.57;;;6.30;;
64469;SDS011;50854;48.538;14.352;2023-05-18T05:48:00;12.53;;;5.27;;
64469;SDS011;50854;48.538;14.352;2023-05-18T05:49:00;13.53;;;5.60;;
64469;SDS011;50854;48.538;14.352;2023-05-18T05:50:00;13.30;;;5.23;;
64469;SDS011;50854;48.538;14.352;2023-05-18T05:51:01;10.97;;;5.50;;
64469;SDS011;50854;48.538;14.352;2023-05-18T05:52:01;15.57;;;5.93;;
64469;SDS011;50854;48.538;14.352;2023-05-18T05:53:01;18.40;;;5.90;;
64469;SDS011;50854;48.538;14.352;2023-05-18T05:54:02;18.80;;;5.60;;
64469;SDS011;50854;48.538;14.352;2023-05-18T05:55:03;13.68;;;5.88;;
64469;SDS011;50854;48.538;14.352;2023-05-18T05:56:03;14.10;;;5.38;;
64469;SDS011;50854;48.538;14.352;2023-05-18T05:57:03;11.03;;;4.90;;
64469;SDS011;50854;48.538;14.352;2023-05-18T05:58:04;15.57;;;5.40;;
64469;SDS011;50854;48.538;14.352;2023-05-18T05:59:04;12.57;;;5.63;;
64469;SDS011;50854;48.538;14.352;2023-05-18T06:00:05;11.57;;;5.47;;
64469;SDS011;50854;48.538;14.352;2023-05-18T06:01:05;20.05;;;6.40;;
64469;SDS011;50854;48.538;14.352;2023-05-18T06:02:06;15.45;;;6.55;;
64469;SDS011;50854;48.538;14.352;2023-05-18T06:03:06;16.80;;;6.68;;
64469;SDS011;50854;48.538;14.352;2023-05-18T06:04:07;18.47;;;5.93;;
64469;SDS011;50854;48.538;14.352;2023-05-18T06:05:09;14.57;;;6.60;;
64469;SDS011;50854;48.538;14.352;2023-05-18T06:06:10;13.87;;;6.33;;
64469;SDS011;50854;48.538;14.352;2023-05-18T06:07:10;13.67;;;5.73;;
64469;SDS011;50854;48.538;14.352;2023-05-18T06:09:11;14.00;;;4.47;;
64469;SDS011;50854;48.538;14.352;2023-05-18T06:10:12;14.18;;;5.15;;
64469;SDS011;50854;48.538;14.352;2023-05-18T06:11:12;11.73;;;4.67;;
64469;SDS011;50854;48.538;14.352;2023-05-18T06:12:13;12.53;;;5.33;;
64469;SDS011;50854;48.538;14.352;2023-05-18T06:13:13;15.27;;;5.37;;
64469;SDS011;50854;48.538;14.352;2023-05-18T06:14:13;15.50;;;5.20;;
64469;SDS011;50854;48.538;14.352;2023-05-18T06:15:13;11.73;;;5.33;;
64469;SDS011;50854;48.538;14.352;2023-05-18T06:16:14;19.37;;;6.20;;
64469;SDS011;50854;48.538;14.352;2023-05-18T06:17:14;14.23;;;5.40;;
64469;SDS011;50854;48.538;14.352;2023-05-18T06:18:14;11.73;;;4.47;;
64469;SDS011;50854;48.538;14.352;2023-05-18T06:19:15;15.10;;;4.17;;
64469;SDS011;50854;48.538;14.352;2023-05-18T06:20:15;8.80;;;3.47;;
64469;SDS011;50854;48.538;14.352;2023-05-18T06:21:15;11.20;;;5.17;;